This is the latest recevied weather packets stored in our database for station/object DB0TV-13. If no packets are shown the sender has not sent any weather packets the latest 1 day(s).
| Time | Temp. | Humidity | Pressure | Rain* | Wind** | Luminosity | Snow |
|---|---|---|---|---|---|---|---|
| 1777989020 | 12.22° C | 95% | 1007.9 hPa | 0 mm | 1.34 m/s, 45° | 109 W/m² | - |
| 1777988418 | 12.22° C | 94% | 1008.1 hPa | 0 mm | 0.89 m/s, 23° | 96 W/m² | - |
| 1777987832 | 12.22° C | 94% | 1008.1 hPa | 0 mm | 1.34 m/s, 0° | 113 W/m² | - |
| 1777987220 | 12.78° C | 94% | 1008.2 hPa | 0 mm | 0.89 m/s, 45° | 133 W/m² | - |
| 1777986619 | 12.78° C | 94% | 1008.3 hPa | 0 mm | 1.34 m/s, 45° | 141 W/m² | - |
| 1777986019 | 12.78° C | 94% | 1008.3 hPa | 0 mm | 0.89 m/s, 45° | 196 W/m² | - |
| 1777985429 | 12.78° C | 94% | 1008.4 hPa | 0 mm | 1.34 m/s, 45° | 202 W/m² | - |
| 1777984819 | 12.78° C | 93% | 1008.4 hPa | 0 mm | 0.89 m/s, 23° | 274 W/m² | - |
| 1777984220 | 13.33° C | 93% | 1008.4 hPa | 0 mm | 0.89 m/s, 0° | 125 W/m² | - |
| 1777983620 | 13.33° C | 93% | 1008.5 hPa | 0 mm | 0.89 m/s, 45° | 105 W/m² | - |
| 1777983019 | 13.89° C | 92% | 1008.4 hPa | 0 mm | 0.89 m/s, 23° | 46 W/m² | - |
| 1777982419 | 13.89° C | 92% | 1008.4 hPa | 0.25 mm | 1.34 m/s, 45° | 213 W/m² | - |
| 1777981819 | 13.89° C | 91% | 1008.4 hPa | 0.25 mm | 1.34 m/s, 23° | 292 W/m² | - |
| 1777981219 | 14.44° C | 89% | 1008.5 hPa | 0.25 mm | 1.34 m/s, 338° | 275 W/m² | - |
| 1777980619 | 15.56° C | 88% | 1008.6 hPa | 0.25 mm | 0.45 m/s, 23° | 315 W/m² | - |
| 1777980019 | 15° C | 88% | 1008.6 hPa | 0.25 mm | 0.45 m/s, 90° | 324 W/m² | - |
| 1777979419 | 15° C | 88% | 1008.6 hPa | 0.25 mm | 0.45 m/s, 90° | 332 W/m² | - |
| 1777978219 | 14.44° C | 91% | 1008.7 hPa | 0 mm | 0.45 m/s, 135° | 519 W/m² | - |
| 1777977019 | 13.89° C | 93% | 1008.9 hPa | 0.25 mm | 0.45 m/s, 158° | 363 W/m² | - |
| 1777975819 | 13.89° C | 92% | 1009.2 hPa | 0.25 mm | 0.45 m/s, 158° | 172 W/m² | - |
| 1777974619 | 13.89° C | 91% | 1009.2 hPa | 0.25 mm | 0.45 m/s, 158° | 126 W/m² | - |
| 1777974019 | 13.89° C | 91% | 1009.1 hPa | 0 mm | 0.45 m/s, 135° | 159 W/m² | - |
| 1777973419 | 13.89° C | 92% | 1009.1 hPa | 0 mm | 0.89 m/s, 135° | 213 W/m² | - |
| 1777972819 | 13.89° C | 92% | 1009.2 hPa | 0 mm | 0.45 m/s, 158° | 176 W/m² | - |
| 1777972219 | 13.89° C | 93% | 1009.2 hPa | 0 mm | 0.45 m/s, 180° | 262 W/m² | - |
* Rain latest hour (hover to see other rain measurements)
** Current wind speed in m/s (hover to see current wind gust speed)